sensor_id;sensor_type;location;lat;lon;timestamp;pressure;altitude;pressure_sealevel;temperature;humidity
11710;BME280;5911;51.036;6.972;2023-04-07T00:02:26;100547.88;;;9.91;100.00
11710;BME280;5911;51.036;6.972;2023-04-07T00:04:54;100548.72;;;9.91;100.00
11710;BME280;5911;51.036;6.972;2023-04-07T00:07:24;100552.88;;;9.94;100.00
11710;BME280;5911;51.036;6.972;2023-04-07T00:09:51;100542.63;;;9.91;100.00
11710;BME280;5911;51.036;6.972;2023-04-07T00:12:19;100553.47;;;9.97;100.00
11710;BME280;5911;51.036;6.972;2023-04-07T00:14:47;100551.47;;;9.90;100.00
11710;BME280;5911;51.036;6.972;2023-04-07T00:17:15;100559.84;;;9.95;100.00
11710;BME280;5911;51.036;6.972;2023-04-07T00:19:44;100552.66;;;9.97;100.00
11710;BME280;5911;51.036;6.972;2023-04-07T00:22:12;100550.72;;;9.99;100.00
11710;BME280;5911;51.036;6.972;2023-04-07T00:24:39;100555.78;;;9.91;100.00
11710;BME280;5911;51.036;6.972;2023-04-07T00:27:07;100554.47;;;9.85;100.00
11710;BME280;5911;51.036;6.972;2023-04-07T00:29:35;100552.44;;;9.88;100.00
11710;BME280;5911;51.036;6.972;2023-04-07T00:32:03;100550.53;;;9.91;100.00
11710;BME280;5911;51.036;6.972;2023-04-07T00:34:31;100558.16;;;9.94;100.00
11710;BME280;5911;51.036;6.972;2023-04-07T00:37:00;100553.72;;;9.94;100.00
11710;BME280;5911;51.036;6.972;2023-04-07T00:39:28;100551.94;;;9.95;100.00
11710;BME280;5911;51.036;6.972;2023-04-07T00:41:56;100549.28;;;9.95;100.00
11710;BME280;5911;51.036;6.972;2023-04-07T00:50:35;100540.44;;;9.96;100.00
11710;BME280;5911;51.036;6.972;2023-04-07T00:53:05;100531.81;;;9.94;100.00
11710;BME280;5911;51.036;6.972;2023-04-07T00:55:33;100543.06;;;9.96;100.00
11710;BME280;5911;51.036;6.972;2023-04-07T00:58:00;100538.88;;;9.93;100.00
11710;BME280;5911;51.036;6.972;2023-04-07T01:00:30;100531.31;;;10.00;100.00
11710;BME280;5911;51.036;6.972;2023-04-07T01:03:04;100530.00;;;10.05;100.00
11710;BME280;5911;51.036;6.972;2023-04-07T01:05:39;100535.72;;;10.10;100.00
11710;BME280;5911;51.036;6.972;2023-04-07T01:08:15;100537.28;;;10.13;100.00
11710;BME280;5911;51.036;6.972;2023-04-07T01:10:50;100534.53;;;10.14;100.00
11710;BME280;5911;51.036;6.972;2023-04-07T01:13:22;100528.41;;;10.14;100.00
11710;BME280;5911;51.036;6.972;2023-04-07T01:16:04;100532.00;;;10.13;100.00
11710;BME280;5911;51.036;6.972;2023-04-07T01:18:39;100528.22;;;10.06;100.00
11710;BME280;5911;51.036;6.972;2023-04-07T01:21:10;100535.59;;;10.12;100.00
11710;BME280;5911;51.036;6.972;2023-04-07T01:23:51;100534.66;;;10.13;100.00
11710;BME280;5911;51.036;6.972;2023-04-07T01:26:29;100541.72;;;10.12;100.00
11710;BME280;5911;51.036;6.972;2023-04-07T01:29:17;100530.09;;;10.15;100.00
11710;BME280;5911;51.036;6.972;2023-04-07T01:31:47;100525.91;;;10.12;100.00
11710;BME280;5911;51.036;6.972;2023-04-07T01:34:18;100531.75;;;10.16;100.00
11710;BME280;5911;51.036;6.972;2023-04-07T01:36:46;100531.75;;;10.16;100.00
11710;BME280;5911;51.036;6.972;2023-04-07T01:39:16;100533.94;;;10.11;100.00
11710;BME280;5911;51.036;6.972;2023-04-07T01:41:45;100526.13;;;10.09;100.00
11710;BME280;5911;51.036;6.972;2023-04-07T01:44:13;100540.88;;;10.12;100.00
11710;BME280;5911;51.036;6.972;2023-04-07T01:46:43;100534.75;;;10.11;100.00
11710;BME280;5911;51.036;6.972;2023-04-07T01:49:12;100535.72;;;10.10;100.00
11710;BME280;5911;51.036;6.972;2023-04-07T01:51:41;100530.72;;;10.07;100.00
11710;BME280;5911;51.036;6.972;2023-04-07T01:54:09;100536.56;;;10.11;100.00
11710;BME280;5911;51.036;6.972;2023-04-07T01:56:37;100524.63;;;10.07;100.00
11710;BME280;5911;51.036;6.972;2023-04-07T01:59:05;100530.31;;;10.12;100.00
11710;BME280;5911;51.036;6.972;2023-04-07T02:01:33;100526.75;;;10.13;100.00
11710;BME280;5911;51.036;6.972;2023-04-07T02:04:10;100531.03;;;10.14;100.00
11710;BME280;5911;51.036;6.972;2023-04-07T02:06:43;100523.97;;;10.14;100.00
11710;BME280;5911;51.036;6.972;2023-04-07T02:09:19;100528.41;;;10.14;100.00
11710;BME280;5911;51.036;6.972;2023-04-07T02:11:48;100528.53;;;10.12;100.00
11710;BME280;5911;51.036;6.972;2023-04-07T02:14:19;100520.50;;;10.14;100.00
11710;BME280;5911;51.036;6.972;2023-04-07T02:17:03;100524.56;;;10.18;100.00
11710;BME280;5911;51.036;6.972;2023-04-07T02:19:33;100526.38;;;10.17;100.00
11710;BME280;5911;51.036;6.972;2023-04-07T02:22:02;100526.28;;;10.19;100.00
11710;BME280;5911;51.036;6.972;2023-04-07T02:24:30;100528.16;;;10.17;100.00
11710;BME280;5911;51.036;6.972;2023-04-07T02:26:58;100529.84;;;10.18;100.00
11710;BME280;5911;51.036;6.972;2023-04-07T02:29:27;100535.34;;;10.15;100.00
11710;BME280;5911;51.036;6.972;2023-04-07T02:31:55;100521.72;;;10.10;100.00
11710;BME280;5911;51.036;6.972;2023-04-07T02:34:23;100530.09;;;10.15;100.00
11710;BME280;5911;51.036;6.972;2023-04-07T02:36:52;100518.13;;;10.11;100.00
11710;BME280;5911;51.036;6.972;2023-04-07T02:39:20;100530.81;;;10.17;100.00
11710;BME280;5911;51.036;6.972;2023-04-07T02:41:48;100526.28;;;10.19;100.00
11710;BME280;5911;51.036;6.972;2023-04-07T02:44:15;100527.22;;;10.18;100.00
11710;BME280;5911;51.036;6.972;2023-04-07T02:46:43;100540.31;;;10.19;100.00
11710;BME280;5911;51.036;6.972;2023-04-07T02:49:11;100541.84;;;10.22;100.00
11710;BME280;5911;51.036;6.972;2023-04-07T02:51:39;100536.69;;;10.20;100.00
11710;BME280;5911;51.036;6.972;2023-04-07T02:54:08;100537.16;;;10.26;100.00
11710;BME280;5911;51.036;6.972;2023-04-07T02:56:36;100541.59;;;10.25;100.00
11710;BME280;5911;51.036;6.972;2023-04-07T02:59:04;100543.00;;;10.29;100.00
11710;BME280;5911;51.036;6.972;2023-04-07T03:01:36;100537.75;;;10.29;100.00
11710;BME280;5911;51.036;6.972;2023-04-07T03:04:06;100539.66;;;10.27;100.00
11710;BME280;5911;51.036;6.972;2023-04-07T03:06:34;100524.38;;;10.21;100.00
11710;BME280;5911;51.036;6.972;2023-04-07T03:09:09;100544.19;;;10.36;100.00
11710;BME280;5911;51.036;6.972;2023-04-07T03:11:38;100540.25;;;10.31;100.00
11710;BME280;5911;51.036;6.972;2023-04-07T03:14:07;100538.47;;;10.31;100.00
11710;BME280;5911;51.036;6.972;2023-04-07T03:16:42;100537.75;;;10.29;100.00
11710;BME280;5911;51.036;6.972;2023-04-07T03:19:12;100544.19;;;10.36;100.00
11710;BME280;5911;51.036;6.972;2023-04-07T03:21:46;100545.66;;;10.29;100.00
11710;BME280;5911;51.036;6.972;2023-04-07T03:24:15;100535.81;;;10.31;100.00
11710;BME280;5911;51.036;6.972;2023-04-07T03:26:45;100541.09;;;10.31;100.00
11710;BME280;5911;51.036;6.972;2023-04-07T03:29:39;100543.59;;;10.33;100.00
11710;BME280;5911;51.036;6.972;2023-04-07T03:32:09;100545.41;;;10.32;100.00
11710;BME280;5911;51.036;6.972;2023-04-07T03:34:38;100546.97;;;10.35;100.00
11710;BME280;5911;51.036;6.972;2023-04-07T03:37:05;100543.25;;;10.37;100.00
11710;BME280;5911;51.036;6.972;2023-04-07T03:39:37;100539.16;;;10.33;100.00
11710;BME280;5911;51.036;6.972;2023-04-07T03:42:21;100537.50;;;10.32;100.00
11710;BME280;5911;51.036;6.972;2023-04-07T03:44:52;100548.28;;;10.29;100.00
11710;BME280;5911;51.036;6.972;2023-04-07T03:47:20;100540.13;;;10.32;100.00
11710;BME280;5911;51.036;6.972;2023-04-07T03:49:53;100543.59;;;10.33;100.00
11710;BME280;5911;51.036;6.972;2023-04-07T03:52:22;100545.88;;;10.37;100.00
11710;BME280;5911;51.036;6.972;2023-04-07T03:54:56;100549.19;;;10.39;100.00
11710;BME280;5911;51.036;6.972;2023-04-07T03:57:28;100547.19;;;10.32;100.00
11710;BME280;5911;51.036;6.972;2023-04-07T03:59:56;100551.63;;;10.31;100.00
11710;BME280;5911;51.036;6.972;2023-04-07T04:02:24;100550.44;;;10.24;100.00
11710;BME280;5911;51.036;6.972;2023-04-07T04:04:55;100554.75;;;10.25;100.00
11710;BME280;5911;51.036;6.972;2023-04-07T04:07:23;100552.41;;;10.22;100.00
11710;BME280;5911;51.036;6.972;2023-04-07T04:09:53;100552.63;;;10.19;100.00
11710;BME280;5911;51.036;6.972;2023-04-07T04:12:23;100556.84;;;10.21;100.00
11710;BME280;5911;51.036;6.972;2023-04-07T04:15:06;100558.34;;;10.24;100.00
11710;BME280;5911;51.036;6.972;2023-04-07T04:17:35;100564.63;;;10.23;100.00
11710;BME280;5911;51.036;6.972;2023-04-07T04:20:05;100557.66;;;10.22;100.00
11710;BME280;5911;51.036;6.972;2023-04-07T04:22:41;100566.25;;;10.24;100.00
11710;BME280;5911;51.036;6.972;2023-04-07T04:25:09;100569.88;;;10.23;100.00
11710;BME280;5911;51.036;6.972;2023-04-07T04:27:38;100566.16;;;10.14;100.00
11710;BME280;5911;51.036;6.972;2023-04-07T04:30:16;100566.53;;;10.21;100.00
11710;BME280;5911;51.036;6.972;2023-04-07T04:32:49;100569.16;;;10.21;100.00
11710;BME280;5911;51.036;6.972;2023-04-07T04:35:23;100571.19;;;10.17;100.00
11710;BME280;5911;51.036;6.972;2023-04-07T04:38:02;100575.84;;;10.25;100.00
11710;BME280;5911;51.036;6.972;2023-04-07T04:40:31;100570.13;;;10.20;100.00
11710;BME280;5911;51.036;6.972;2023-04-07T04:43:01;100581.25;;;10.23;100.00
11710;BME280;5911;51.036;6.972;2023-04-07T04:45:34;100581.13;;;10.25;100.00
11710;BME280;5911;51.036;6.972;2023-04-07T04:48:03;100578.50;;;10.14;100.00
11710;BME280;5911;51.036;6.972;2023-04-07T04:50:31;100588.47;;;10.21;100.00
11710;BME280;5911;51.036;6.972;2023-04-07T04:53:03;100583.06;;;10.23;100.00
11710;BME280;5911;51.036;6.972;2023-04-07T04:55:31;100580.69;;;10.20;100.00
11710;BME280;5911;51.036;6.972;2023-04-07T04:58:01;100584.03;;;10.22;100.00
11710;BME280;5911;51.036;6.972;2023-04-07T05:00:43;100592.25;;;10.17;100.00
11710;BME280;5911;51.036;6.972;2023-04-07T05:03:11;100590.84;;;10.13;100.00
11710;BME280;5911;51.036;6.972;2023-04-07T05:05:46;100591.44;;;10.17;100.00
11710;BME280;5911;51.036;6.972;2023-04-07T05:08:16;100592.63;;;10.13;100.00
11710;BME280;5911;51.036;6.972;2023-04-07T05:10:45;100598.38;;;10.18;100.00
11710;BME280;5911;51.036;6.972;2023-04-07T05:13:17;100594.31;;;10.14;100.00
11710;BME280;5911;51.036;6.972;2023-04-07T05:15:45;100598.16;;;10.21;100.00
11710;BME280;5911;51.036;6.972;2023-04-07T05:18:13;100599.81;;;10.11;100.00
11710;BME280;5911;51.036;6.972;2023-04-07T05:20:41;100599.56;;;10.14;100.00
11710;BME280;5911;51.036;6.972;2023-04-07T05:23:11;100604.13;;;10.12;100.00
11710;BME280;5911;51.036;6.972;2023-04-07T05:25:39;100605.81;;;10.13;100.00
11710;BME280;5911;51.036;6.972;2023-04-07T05:28:07;100604.13;;;10.12;100.00
11710;BME280;5911;51.036;6.972;2023-04-07T05:30:37;100609.03;;;10.16;100.00
11710;BME280;5911;51.036;6.972;2023-04-07T05:33:05;100602.84;;;10.06;100.00
11710;BME280;5911;51.036;6.972;2023-04-07T05:35:47;100606.16;;;10.08;100.00
11710;BME280;5911;51.036;6.972;2023-04-07T05:38:15;100604.63;;;10.06;100.00
11710;BME280;5911;51.036;6.972;2023-04-07T05:40:45;100615.41;;;10.03;100.00
11710;BME280;5911;51.036;6.972;2023-04-07T05:43:20;100614.94;;;9.98;100.00
11710;BME280;5911;51.036;6.972;2023-04-07T05:45:51;100626.19;;;10.00;100.00
11710;BME280;5911;51.036;6.972;2023-04-07T05:48:20;100621.16;;;9.97;100.00
11710;BME280;5911;51.036;6.972;2023-04-07T05:50:48;100621.16;;;9.97;100.00
11710;BME280;5911;51.036;6.972;2023-04-07T05:53:18;100624.50;;;9.99;100.00
11710;BME280;5911;51.036;6.972;2023-04-07T05:55:46;100626.44;;;9.97;100.00
11710;BME280;5911;51.036;6.972;2023-04-07T05:58:40;100630.28;;;10.04;100.00
11710;BME280;5911;51.036;6.972;2023-04-07T06:01:10;100624.03;;;10.05;100.00
11710;BME280;5911;51.036;6.972;2023-04-07T06:03:38;100628.72;;;10.01;100.00
11710;BME280;5911;51.036;6.972;2023-04-07T06:06:19;100627.41;;;10.07;100.00
11710;BME280;5911;51.036;6.972;2023-04-07T06:08:47;100634.19;;;10.09;100.00
11710;BME280;5911;51.036;6.972;2023-04-07T06:11:15;100637.94;;;10.07;100.00
11710;BME280;5911;51.036;6.972;2023-04-07T06:13:43;100639.63;;;10.08;100.00
11710;BME280;5911;51.036;6.972;2023-04-07T06:16:12;100644.88;;;10.08;100.00
11710;BME280;5911;51.036;6.972;2023-04-07T06:18:41;100648.22;;;10.10;100.00
11710;BME280;5911;51.036;6.972;2023-04-07T06:21:08;100652.53;;;10.11;100.00
11710;BME280;5911;51.036;6.972;2023-04-07T06:23:36;100654.94;;;10.14;100.00
11710;BME280;5911;51.036;6.972;2023-04-07T06:26:06;100652.06;;;10.17;100.00
11710;BME280;5911;51.036;6.972;2023-04-07T06:28:36;100651.00;;;10.19;100.00
11710;BME280;5911;51.036;6.972;2023-04-07T06:31:04;100659.13;;;10.16;100.00
11710;BME280;5911;51.036;6.972;2023-04-07T06:33:35;100654.69;;;10.17;100.00
11710;BME280;5911;51.036;6.972;2023-04-07T06:36:03;100664.28;;;10.18;100.00
11710;BME280;5911;51.036;6.972;2023-04-07T06:38:31;100661.44;;;10.21;100.00
11710;BME280;5911;51.036;6.972;2023-04-07T06:40:59;100633.97;;;10.01;100.00
11710;BME280;5911;51.036;6.972;2023-04-07T06:43:26;100660.72;;;10.19;100.00
11710;BME280;5911;51.036;6.972;2023-04-07T06:46:00;100667.88;;;10.17;100.00
11710;BME280;5911;51.036;6.972;2023-04-07T06:48:28;100672.19;;;10.18;100.00
11710;BME280;5911;51.036;6.972;2023-04-07T06:50:57;100666.06;;;10.17;100.00
11710;BME280;5911;51.036;6.972;2023-04-07T06:53:24;100677.59;;;10.28;100.00
11710;BME280;5911;51.036;6.972;2023-04-07T06:56:01;100655.88;;;10.13;100.00
11710;BME280;5911;51.036;6.972;2023-04-07T06:58:29;100681.69;;;10.20;100.00
11710;BME280;5911;51.036;6.972;2023-04-07T07:00:57;100682.53;;;10.21;100.00
11710;BME280;5911;51.036;6.972;2023-04-07T07:03:25;100683.09;;;10.25;100.00
11710;BME280;5911;51.036;6.972;2023-04-07T07:05:54;100683.25;;;10.23;100.00
11710;BME280;5911;51.036;6.972;2023-04-07T07:08:24;100693.41;;;10.28;100.00
11710;BME280;5911;51.036;6.972;2023-04-07T07:10:52;100678.31;;;10.18;100.00
11710;BME280;5911;51.036;6.972;2023-04-07T07:13:22;100689.09;;;10.27;100.00
11710;BME280;5911;51.036;6.972;2023-04-07T07:15:50;100692.94;;;10.23;100.00
11710;BME280;5911;51.036;6.972;2023-04-07T07:18:22;100679.16;;;10.19;100.00
11710;BME280;5911;51.036;6.972;2023-04-07T07:20:50;100704.56;;;10.20;100.00
11710;BME280;5911;51.036;6.972;2023-04-07T07:23:17;100703.50;;;10.23;100.00
11710;BME280;5911;51.036;6.972;2023-04-07T07:25:47;100698.53;;;10.18;100.00
11710;BME280;5911;51.036;6.972;2023-04-07T07:28:15;100702.13;;;10.17;100.00
11710;BME280;5911;51.036;6.972;2023-04-07T07:30:43;100709.72;;;10.21;100.00
11710;BME280;5911;51.036;6.972;2023-04-07T07:33:11;100703.94;;;10.28;100.00
11710;BME280;5911;51.036;6.972;2023-04-07T07:35:39;100712.69;;;10.28;100.00
11710;BME280;5911;51.036;6.972;2023-04-07T07:38:07;100713.88;;;10.24;100.00
11710;BME280;5911;51.036;6.972;2023-04-07T07:40:35;100708.38;;;10.27;100.00
11710;BME280;5911;51.036;6.972;2023-04-07T07:43:07;100722.06;;;10.32;100.00
11710;BME280;5911;51.036;6.972;2023-04-07T07:45:34;100713.41;;;10.30;100.00
11710;BME280;5911;51.036;6.972;2023-04-07T07:48:02;100717.72;;;10.31;100.00
11710;BME280;5911;51.036;6.972;2023-04-07T07:50:30;100724.69;;;10.32;100.00
11710;BME280;5911;51.036;6.972;2023-04-07T07:52:58;100726.38;;;10.33;100.00
11710;BME280;5911;51.036;6.972;2023-04-07T07:55:26;100730.19;;;10.40;100.00
11710;BME280;5911;51.036;6.972;2023-04-07T07:57:56;100726.13;;;10.36;100.00
11710;BME280;5911;51.036;6.972;2023-04-07T08:00:25;100715.22;;;10.18;100.00
11710;BME280;5911;51.036;6.972;2023-04-07T08:02:54;100726.38;;;10.33;100.00
11710;BME280;5911;51.036;6.972;2023-04-07T08:05:22;100728.78;;;10.36;100.00
11710;BME280;5911;51.036;6.972;2023-04-07T08:07:50;100735.22;;;10.43;100.00
11710;BME280;5911;51.036;6.972;2023-04-07T08:10:20;100740.72;;;10.40;100.00
11710;BME280;5911;51.036;6.972;2023-04-07T08:12:50;100743.50;;;10.39;100.00
11710;BME280;5911;51.036;6.972;2023-04-07T08:15:18;100746.00;;;10.40;100.00
11710;BME280;5911;51.036;6.972;2023-04-07T08:17:47;100745.75;;;10.43;100.00
11710;BME280;5911;51.036;6.972;2023-04-07T08:20:15;100751.16;;;10.42;100.00
11710;BME280;5911;51.036;6.972;2023-04-07T08:22:43;100755.97;;;10.37;100.00
11710;BME280;5911;51.036;6.972;2023-04-07T08:25:11;100757.88;;;10.46;100.00
11710;BME280;5911;51.036;6.972;2023-04-07T08:27:38;100761.59;;;10.43;100.00
11710;BME280;5911;51.036;6.972;2023-04-07T08:30:07;100764.94;;;10.45;100.00
11710;BME280;5911;51.036;6.972;2023-04-07T08:32:35;100764.47;;;10.40;100.00
11710;BME280;5911;51.036;6.972;2023-04-07T08:35:05;100758.22;;;10.41;100.00
11710;BME280;5911;51.036;6.972;2023-04-07T08:37:33;100761.34;;;10.46;100.00
11710;BME280;5911;51.036;6.972;2023-04-07T08:40:02;100766.63;;;10.46;100.00
11710;BME280;5911;51.036;6.972;2023-04-07T08:42:31;100767.00;;;10.53;100.00
11710;BME280;5911;51.036;6.972;2023-04-07T08:45:02;100757.75;;;10.47;100.00
11710;BME280;5911;51.036;6.972;2023-04-07T08:47:32;100774.53;;;10.57;100.00
11710;BME280;5911;51.036;6.972;2023-04-07T08:50:01;100777.88;;;10.60;100.00
11710;BME280;5911;51.036;6.972;2023-04-07T08:52:34;100770.56;;;10.63;100.00
11710;BME280;5911;51.036;6.972;2023-04-07T08:55:07;100770.94;;;10.58;100.00
11710;BME280;5911;51.036;6.972;2023-04-07T08:57:36;100778.97;;;10.68;100.00
11710;BME280;5911;51.036;6.972;2023-04-07T09:00:05;100781.25;;;10.62;100.00
11710;BME280;5911;51.036;6.972;2023-04-07T09:02:35;100784.69;;;10.73;100.00
11710;BME280;5911;51.036;6.972;2023-04-07T09:05:05;100781.94;;;10.75;100.00
11710;BME280;5911;51.036;6.972;2023-04-07T09:07:37;100783.38;;;10.79;100.00
11710;BME280;5911;51.036;6.972;2023-04-07T09:10:07;100785.53;;;10.74;100.00
11710;BME280;5911;51.036;6.972;2023-04-07T09:12:35;100787.94;;;10.77;100.00
11710;BME280;5911;51.036;6.972;2023-04-07T09:15:06;100788.66;;;10.79;100.00
11710;BME280;5911;51.036;6.972;2023-04-07T09:17:34;100786.50;;;10.84;100.00
11710;BME280;5911;51.036;6.972;2023-04-07T09:20:02;100801.59;;;10.93;100.00
11710;BME280;5911;51.036;6.972;2023-04-07T09:22:36;100796.91;;;10.85;100.00
11710;BME280;5911;51.036;6.972;2023-04-07T09:25:12;100802.34;;;10.84;100.00
11710;BME280;5911;51.036;6.972;2023-04-07T09:27:53;100800.38;;;10.86;100.00
11710;BME280;5911;51.036;6.972;2023-04-07T09:30:21;100797.50;;;10.89;100.00
11710;BME280;5911;51.036;6.972;2023-04-07T09:32:49;100801.00;;;10.89;100.00
11710;BME280;5911;51.036;6.972;2023-04-07T09:35:17;100807.09;;;10.90;100.00
11710;BME280;5911;51.036;6.972;2023-04-07T09:38:00;100806.50;;;10.86;100.00
11710;BME280;5911;51.036;6.972;2023-04-07T09:40:28;100807.00;;;10.80;100.00
11710;BME280;5911;51.036;6.972;2023-04-07T09:42:56;100795.25;;;10.73;100.00
11710;BME280;5911;51.036;6.972;2023-04-07T09:45:25;100803.97;;;10.85;100.00
11710;BME280;5911;51.036;6.972;2023-04-07T09:48:04;100802.34;;;10.84;100.00
11710;BME280;5911;51.036;6.972;2023-04-07T09:50:34;100811.66;;;10.88;100.00
11710;BME280;5911;51.036;6.972;2023-04-07T09:53:03;100809.97;;;10.87;100.00
11710;BME280;5911;51.036;6.972;2023-04-07T09:55:31;100812.38;;;10.90;100.00
11710;BME280;5911;51.036;6.972;2023-04-07T09:58:00;100809.38;;;10.95;100.00
11710;BME280;5911;51.036;6.972;2023-04-07T10:00:28;100806.22;;;11.01;100.00
11710;BME280;5911;51.036;6.972;2023-04-07T10:02:56;100810.00;;;10.98;100.00
11710;BME280;5911;51.036;6.972;2023-04-07T10:05:25;100818.59;;;11.00;100.00
11710;BME280;5911;51.036;6.972;2023-04-07T10:07:54;100814.44;;;10.98;100.00
11710;BME280;5911;51.036;6.972;2023-04-07T10:10:25;100808.53;;;10.94;100.00
11710;BME280;5911;51.036;6.972;2023-04-07T10:12:55;100805.44;;;10.89;100.00
11710;BME280;5911;51.036;6.972;2023-04-07T10:15:24;100812.38;;;10.90;100.00
11710;BME280;5911;51.036;6.972;2023-04-07T10:17:52;100814.06;;;10.91;100.00
11710;BME280;5911;51.036;6.972;2023-04-07T10:20:22;100818.16;;;10.84;100.00
11710;BME280;5911;51.036;6.972;2023-04-07T10:22:51;100827.50;;;10.88;100.00
11710;BME280;5911;51.036;6.972;2023-04-07T10:25:21;100823.44;;;10.73;100.00
11710;BME280;5911;51.036;6.972;2023-04-07T10:27:55;100833.63;;;10.77;100.00
11710;BME280;5911;51.036;6.972;2023-04-07T10:30:28;100833.03;;;10.74;100.00
11710;BME280;5911;51.036;6.972;2023-04-07T10:32:57;100828.47;;;10.76;100.00
11710;BME280;5911;51.036;6.972;2023-04-07T10:35:25;100827.41;;;10.78;100.00
11710;BME280;5911;51.036;6.972;2023-04-07T10:38:10;100833.28;;;10.82;100.00
11710;BME280;5911;51.036;6.972;2023-04-07T10:40:41;100837.34;;;10.86;100.00
11710;BME280;5911;51.036;6.972;2023-04-07T10:43:10;100828.25;;;10.79;100.00
11710;BME280;5911;51.036;6.972;2023-04-07T10:45:55;100845.72;;;10.91;100.00
11710;BME280;5911;51.036;6.972;2023-04-07T10:48:25;100838.53;;;10.93;100.00
11710;BME280;5911;51.036;6.972;2023-04-07T10:51:12;100838.91;;;11.00;100.00
11710;BME280;5911;51.036;6.972;2023-04-07T10:57:10;100845.72;;;11.13;100.00
11710;BME280;5911;51.036;6.972;2023-04-07T11:02:45;100851.00;;;11.13;100.00
11710;BME280;5911;51.036;6.972;2023-04-07T11:05:21;100846.28;;;11.17;100.00
11710;BME280;5911;51.036;6.972;2023-04-07T11:07:51;100844.03;;;11.12;100.00
11710;BME280;5911;51.036;6.972;2023-04-07T11:10:20;100846.88;;;11.20;100.00
11710;BME280;5911;51.036;6.972;2023-04-07T11:13:03;100844.97;;;11.22;100.00
11710;BME280;5911;51.036;6.972;2023-04-07T11:15:34;100837.28;;;11.19;100.00
11710;BME280;5911;51.036;6.972;2023-04-07T11:18:16;100846.88;;;11.20;100.00
11710;BME280;5911;51.036;6.972;2023-04-07T11:20:46;100846.91;;;11.09;100.00
11710;BME280;5911;51.036;6.972;2023-04-07T11:23:15;100849.31;;;11.12;100.00
11710;BME280;5911;51.036;6.972;2023-04-07T11:25:45;100851.00;;;11.13;100.00
11710;BME280;5911;51.036;6.972;2023-04-07T11:28:13;100852.41;;;11.17;100.00
11710;BME280;5911;51.036;6.972;2023-04-07T11:30:48;100856.00;;;11.16;100.00
11710;BME280;5911;51.036;6.972;2023-04-07T11:33:19;100857.44;;;11.20;100.00
11710;BME280;5911;51.036;6.972;2023-04-07T11:35:49;100861.53;;;11.24;100.00
11710;BME280;5911;51.036;6.972;2023-04-07T11:38:18;100864.00;;;11.37;100.00
11710;BME280;5911;51.036;6.972;2023-04-07T11:40:46;100851.69;;;11.26;100.00
11710;BME280;5911;51.036;6.972;2023-04-07T11:43:15;100868.25;;;11.28;100.00
11710;BME280;5911;51.036;6.972;2023-04-07T11:45:43;100864.66;;;11.18;100.00
11710;BME280;5911;51.036;6.972;2023-04-07T11:48:26;100875.94;;;11.09;100.00
11710;BME280;5911;51.036;6.972;2023-04-07T11:50:54;100876.91;;;11.08;100.00
11710;BME280;5911;51.036;6.972;2023-04-07T11:53:26;100877.75;;;11.09;100.00
11710;BME280;5911;51.036;6.972;2023-04-07T11:56:04;100887.69;;;11.16;100.00
11710;BME280;5911;51.036;6.972;2023-04-07T11:58:35;100880.50;;;11.18;100.00
11710;BME280;5911;51.036;6.972;2023-04-07T12:01:05;100883.59;;;11.23;100.00
11710;BME280;5911;51.036;6.972;2023-04-07T12:03:36;100884.53;;;11.34;100.00
11710;BME280;5911;51.036;6.972;2023-04-07T12:06:04;100884.19;;;11.38;100.00
11710;BME280;5911;51.036;6.972;2023-04-07T12:08:37;100895.31;;;11.53;100.00
11710;BME280;5911;51.036;6.972;2023-04-07T12:11:05;100883.72;;;11.65;100.00
11710;BME280;5911;51.036;6.972;2023-04-07T12:13:33;100877.72;;;11.74;100.00
11710;BME280;5911;51.036;6.972;2023-04-07T12:16:01;100894.25;;;11.87;100.00
11710;BME280;5911;51.036;6.972;2023-04-07T12:18:29;100889.16;;;11.95;100.00
11710;BME280;5911;51.036;6.972;2023-04-07T12:20:59;100887.00;;;12.01;100.00
11710;BME280;5911;51.036;6.972;2023-04-07T12:23:27;100900.97;;;12.12;100.00
11710;BME280;5911;51.036;6.972;2023-04-07T12:25:55;100899.19;;;12.13;100.00
11710;BME280;5911;51.036;6.972;2023-04-07T12:28:22;100901.88;;;12.02;100.00
11710;BME280;5911;51.036;6.972;2023-04-07T12:30:50;100895.94;;;11.88;100.00
11710;BME280;5911;51.036;6.972;2023-04-07T12:33:18;100902.63;;;11.92;100.00
11710;BME280;5911;51.036;6.972;2023-04-07T12:35:46;100903.22;;;11.96;100.00
11710;BME280;5911;51.036;6.972;2023-04-07T12:38:16;100909.94;;;12.00;100.00
11710;BME280;5911;51.036;6.972;2023-04-07T12:40:43;100906.59;;;11.98;100.00
11710;BME280;5911;51.036;6.972;2023-04-07T12:43:11;100905.97;;;12.06;100.00
11710;BME280;5911;51.036;6.972;2023-04-07T12:45:39;100903.63;;;12.12;100.00
11710;BME280;5911;51.036;6.972;2023-04-07T12:48:07;100905.19;;;12.15;100.00
11710;BME280;5911;51.036;6.972;2023-04-07T12:50:35;100913.97;;;12.15;100.00
11710;BME280;5911;51.036;6.972;2023-04-07T12:53:03;100911.25;;;12.26;100.00
11710;BME280;5911;51.036;6.972;2023-04-07T12:55:32;100913.25;;;12.34;100.00
11710;BME280;5911;51.036;6.972;2023-04-07T12:58:01;100912.53;;;12.32;100.00
11710;BME280;5911;51.036;6.972;2023-04-07T13:00:28;100912.63;;;12.21;100.00
11710;BME280;5911;51.036;6.972;2023-04-07T13:02:57;100921.50;;;12.20;100.00
11710;BME280;5911;51.036;6.972;2023-04-07T13:05:25;100914.78;;;12.16;100.00
11710;BME280;5911;51.036;6.972;2023-04-07T13:07:53;100911.19;;;12.17;100.00
11710;BME280;5911;51.036;6.972;2023-04-07T13:10:21;100925.31;;;12.27;100.00
11710;BME280;5911;51.036;6.972;2023-04-07T13:12:50;100920.34;;;12.33;100.00
11710;BME280;5911;51.036;6.972;2023-04-07T13:15:21;100911.47;;;12.35;100.00
11710;BME280;5911;51.036;6.972;2023-04-07T13:17:50;100907.13;;;12.33;100.00
11710;BME280;5911;51.036;6.972;2023-04-07T13:20:17;100921.03;;;12.56;100.00